createdAt,value
2023-03-06T00:01:08.551Z,100339.47
2023-03-06T00:04:10.724Z,100326.63
2023-03-06T00:07:12.929Z,100344.69
2023-03-06T00:10:26.174Z,100347.94
2023-03-06T00:13:30.276Z,100343.72
2023-03-06T00:16:32.401Z,100344.78
2023-03-06T00:19:34.912Z,100335.38
2023-03-06T00:22:37.114Z,100335.75
2023-03-06T00:25:43.126Z,100336.00
2023-03-06T00:28:45.221Z,100343.06
2023-03-06T00:31:48.100Z,100336.16
2023-03-06T00:34:53.518Z,100336.06
2023-03-06T00:37:55.651Z,100329.91
2023-03-06T00:40:57.692Z,100336.31
2023-03-06T00:43:59.828Z,100327.38
2023-03-06T00:47:02.642Z,100313.03
2023-03-06T00:50:06.482Z,100333.75
2023-03-06T00:53:08.617Z,100316.84
2023-03-06T00:56:10.777Z,100319.78
2023-03-06T00:59:12.679Z,100328.34
2023-03-06T01:02:14.839Z,100317.66
2023-03-06T01:05:16.976Z,100330.13
2023-03-06T01:08:18.926Z,100324.94
2023-03-06T01:11:21.097Z,100332.75
2023-03-06T01:14:23.401Z,100329.81
2023-03-06T01:17:25.507Z,100330.56
2023-03-06T01:20:28.244Z,100320.19
2023-03-06T01:23:30.401Z,100321.75
2023-03-06T01:26:33.624Z,100329.97
2023-03-06T01:29:35.633Z,100331.25
2023-03-06T01:32:37.861Z,100316.66
2023-03-06T01:35:39.977Z,100334.63
2023-03-06T01:38:42.026Z,100326.34
2023-03-06T01:41:44.146Z,100317.88
2023-03-06T01:45:24.624Z,100336.84
2023-03-06T01:48:26.693Z,100321.75
2023-03-06T01:51:37.329Z,100321.97
2023-03-06T01:55:05.541Z,100324.56
2023-03-06T01:58:12.322Z,100309.66
2023-03-06T02:01:15.028Z,100321.75
2023-03-06T02:04:18.196Z,100304.38
2023-03-06T02:07:21.507Z,100311.81
2023-03-06T02:10:24.328Z,100283.44
2023-03-06T02:13:27.475Z,100299.53
2023-03-06T02:16:32.003Z,100307.44
2023-03-06T02:19:43.121Z,100291.06
2023-03-06T02:23:07.157Z,100306.88
2023-03-06T02:26:10.265Z,100314.03
2023-03-06T02:29:12.523Z,100316.16
2023-03-06T02:32:14.788Z,100311.09
2023-03-06T02:35:23.031Z,100313.56
2023-03-06T02:38:34.834Z,100310.25
2023-03-06T02:41:36.988Z,100315.28
2023-03-06T02:44:39.249Z,100313.31
2023-03-06T02:47:41.297Z,100313.78
2023-03-06T02:50:44.620Z,100316.56
2023-03-06T02:53:46.756Z,100314.13
2023-03-06T02:56:48.837Z,100313.09
2023-03-06T02:59:51.000Z,100309.66
2023-03-06T03:02:54.272Z,100318.38
2023-03-06T03:05:56.355Z,100325.84
2023-03-06T03:09:03.048Z,100317.28
2023-03-06T03:12:07.673Z,100329.91
2023-03-06T03:15:10.641Z,100324.16
2023-03-06T03:18:13.285Z,100320.72
2023-03-06T03:21:15.762Z,100323.34
2023-03-06T03:24:19.091Z,100324.72
2023-03-06T03:27:21.208Z,100329.13
2023-03-06T03:30:23.533Z,100322.34
2023-03-06T03:33:26.178Z,100342.41
2023-03-06T03:36:28.855Z,100339.34
2023-03-06T03:39:31.002Z,100350.75
2023-03-06T03:42:33.222Z,100324.44
2023-03-06T03:45:35.454Z,100340.69
2023-03-06T03:48:38.279Z,100334.34
2023-03-06T03:51:41.478Z,100333.50
2023-03-06T03:54:43.804Z,100341.91
2023-03-06T03:57:46.161Z,100334.19
2023-03-06T04:00:49.256Z,100350.47
2023-03-06T04:03:51.328Z,100341.81
2023-03-06T04:06:53.724Z,100342.69
2023-03-06T04:09:55.727Z,100339.97
2023-03-06T04:12:58.051Z,100339.91
2023-03-06T04:16:01.916Z,100344.06
2023-03-06T04:19:06.484Z,100338.13
2023-03-06T04:22:09.101Z,100345.69
2023-03-06T04:25:14.030Z,100347.06
2023-03-06T04:28:16.618Z,100343.22
2023-03-06T04:31:19.045Z,100343.19
2023-03-06T04:34:21.284Z,100356.31
2023-03-06T04:37:26.178Z,100366.69
2023-03-06T04:40:31.655Z,100366.06
2023-03-06T04:43:34.954Z,100369.94
2023-03-06T04:46:37.105Z,100374.97
2023-03-06T04:49:39.122Z,100374.22
2023-03-06T04:52:41.166Z,100371.09
2023-03-06T04:55:43.202Z,100373.59
2023-03-06T04:58:45.493Z,100382.16
2023-03-06T05:01:47.940Z,100380.28
2023-03-06T05:04:50.027Z,100374.44
2023-03-06T05:07:52.799Z,100388.63
2023-03-06T05:10:57.238Z,100406.88
2023-03-06T05:13:59.350Z,100393.66
2023-03-06T05:17:01.412Z,100410.16
2023-03-06T05:20:06.329Z,100416.22
2023-03-06T05:23:08.487Z,100413.34
2023-03-06T05:26:12.677Z,100411.47
2023-03-06T05:29:14.638Z,100426.25
2023-03-06T05:32:17.223Z,100426.16
2023-03-06T05:35:22.112Z,100432.41
2023-03-06T05:38:24.383Z,100432.38
2023-03-06T05:41:26.353Z,100440.22
2023-03-06T05:44:36.111Z,100428.34
2023-03-06T05:47:38.193Z,100434.03
2023-03-06T05:50:40.433Z,100428.59
2023-03-06T05:53:42.422Z,100428.91
2023-03-06T05:56:44.458Z,100447.19
2023-03-06T05:59:46.804Z,100441.66
2023-03-06T06:02:49.074Z,100437.47
2023-03-06T06:05:52.164Z,100441.16
2023-03-06T06:08:54.261Z,100437.88
2023-03-06T06:12:03.780Z,100440.28
2023-03-06T06:15:06.901Z,100440.50
2023-03-06T06:18:08.895Z,100434.06
2023-03-06T06:21:13.379Z,100430.34
2023-03-06T06:24:17.053Z,100439.22
2023-03-06T06:27:19.060Z,100438.81
2023-03-06T06:30:21.284Z,100450.91
2023-03-06T06:33:23.926Z,100450.06
2023-03-06T06:36:26.153Z,100458.41
2023-03-06T06:39:29.108Z,100459.63
2023-03-06T06:42:37.761Z,100464.47
2023-03-06T06:45:44.203Z,100457.72
2023-03-06T06:48:49.705Z,100459.44
2023-03-06T06:51:51.889Z,100457.13
2023-03-06T06:54:54.285Z,100446.47
2023-03-06T06:57:56.609Z,100464.78
2023-03-06T07:01:05.568Z,100456.88
2023-03-06T07:04:07.716Z,100461.63
2023-03-06T07:07:09.824Z,100463.59
2023-03-06T07:10:14.957Z,100475.75
2023-03-06T07:13:17.207Z,100465.56
2023-03-06T07:16:20.385Z,100461.84
2023-03-06T07:19:22.666Z,100463.16
2023-03-06T07:22:24.753Z,100470.97
2023-03-06T07:25:26.832Z,100467.13
2023-03-06T07:28:28.990Z,100471.31
2023-03-06T07:31:31.125Z,100473.63
2023-03-06T07:34:33.334Z,100470.94
2023-03-06T07:37:35.432Z,100470.72
2023-03-06T07:40:39.017Z,100484.28
2023-03-06T07:43:42.173Z,100479.91
2023-03-06T07:46:44.154Z,100475.94
2023-03-06T07:49:46.159Z,100471.16
2023-03-06T07:52:50.311Z,100467.59
2023-03-06T07:55:53.345Z,100480.94
2023-03-06T07:58:57.044Z,100477.81
2023-03-06T08:02:00.789Z,100486.78
2023-03-06T08:05:03.064Z,100483.25
2023-03-06T08:08:06.500Z,100469.06
2023-03-06T08:11:09.811Z,100455.34
2023-03-06T08:14:11.852Z,100454.53
2023-03-06T08:17:14.040Z,100452.16
2023-03-06T08:20:17.226Z,100455.59
2023-03-06T08:23:19.115Z,100464.88
2023-03-06T08:26:24.380Z,100450.84
2023-03-06T08:29:27.203Z,100461.91
2023-03-06T08:32:29.272Z,100458.00
2023-03-06T08:35:31.415Z,100458.94
2023-03-06T08:38:34.560Z,100465.22
2023-03-06T08:41:37.299Z,100465.59
2023-03-06T08:44:39.441Z,100461.09
2023-03-06T08:47:41.544Z,100447.63
2023-03-06T08:50:43.558Z,100458.34
2023-03-06T08:53:46.510Z,100464.63
2023-03-06T08:56:48.520Z,100462.25
2023-03-06T08:59:50.545Z,100455.72
2023-03-06T09:02:52.791Z,100453.56
2023-03-06T09:05:54.900Z,100464.41
2023-03-06T09:08:57.732Z,100465.91
2023-03-06T09:11:59.714Z,100467.47
2023-03-06T09:15:04.478Z,100466.06
2023-03-06T09:18:06.808Z,100461.31
2023-03-06T09:21:09.849Z,100462.13
2023-03-06T09:24:12.082Z,100462.50
2023-03-06T09:27:16.894Z,100460.34
2023-03-06T09:30:19.263Z,100467.13
2023-03-06T09:33:21.736Z,100450.25
2023-03-06T09:36:24.126Z,100456.69
2023-03-06T09:39:27.432Z,100471.28
2023-03-06T09:42:29.654Z,100466.94
2023-03-06T09:45:37.299Z,100484.66
2023-03-06T09:49:10.572Z,100482.19
2023-03-06T09:52:34.303Z,100479.09
2023-03-06T09:55:38.891Z,100479.47
2023-03-06T09:58:52.544Z,100474.06
2023-03-06T10:02:16.274Z,100470.94
2023-03-06T10:05:28.782Z,100459.84
2023-03-06T10:08:42.961Z,100446.03
2023-03-06T10:11:54.812Z,100457.91
2023-03-06T10:15:17.116Z,100464.38
2023-03-06T10:18:21.465Z,100460.13
2023-03-06T10:21:44.887Z,100438.41
2023-03-06T10:25:01.584Z,100450.34
2023-03-06T10:28:16.538Z,100452.19
2023-03-06T10:31:26.703Z,100452.25
2023-03-06T10:34:39.317Z,100444.09
2023-03-06T10:37:41.455Z,100443.97
2023-03-06T10:40:56.911Z,100447.97
2023-03-06T10:44:00.884Z,100440.47
2023-03-06T10:47:30.150Z,100431.88
2023-03-06T10:50:34.610Z,100427.47
2023-03-06T10:53:36.694Z,100433.13
2023-03-06T10:56:41.584Z,100427.28
2023-03-06T11:00:02.001Z,100421.66
2023-03-06T11:03:22.396Z,100432.50
2023-03-06T11:06:36.002Z,100428.97
2023-03-06T11:09:38.096Z,100427.06
2023-03-06T11:12:42.527Z,100436.59
2023-03-06T11:16:17.048Z,100419.53
2023-03-06T11:19:28.942Z,100406.16
2023-03-06T11:22:32.819Z,100422.41
2023-03-06T11:25:41.882Z,100424.22
2023-03-06T11:28:56.371Z,100423.00
2023-03-06T11:32:24.825Z,100420.09
2023-03-06T11:35:35.963Z,100402.13
2023-03-06T11:38:49.212Z,100424.00
2023-03-06T11:42:05.683Z,100415.22
2023-03-06T11:45:19.199Z,100427.31
2023-03-06T11:48:28.159Z,100414.66
2023-03-06T11:51:35.327Z,100415.19
2023-03-06T11:54:37.345Z,100414.50
2023-03-06T11:58:04.058Z,100415.66
2023-03-06T12:01:32.274Z,100397.84
2023-03-06T12:04:43.048Z,100409.50
2023-03-06T12:08:00.716Z,100404.44
2023-03-06T12:11:24.567Z,100404.16
2023-03-06T12:14:32.103Z,100408.69
2023-03-06T12:18:09.397Z,100402.78
2023-03-06T12:21:48.683Z,100393.88
2023-03-06T12:25:28.512Z,100391.69
2023-03-06T12:28:54.378Z,100394.88
2023-03-06T12:32:17.884Z,100390.94
2023-03-06T12:35:38.870Z,100395.94
2023-03-06T12:39:01.714Z,100396.94
2023-03-06T12:42:42.504Z,100393.69
2023-03-06T12:45:45.484Z,100398.06
2023-03-06T12:49:23.050Z,100386.59
2023-03-06T12:52:34.398Z,100383.63
2023-03-06T12:55:46.393Z,100386.53
2023-03-06T12:58:54.345Z,100394.28
2023-03-06T13:02:11.838Z,100388.03
2023-03-06T13:05:26.121Z,100392.38
2023-03-06T13:08:46.645Z,100397.97
2023-03-06T13:12:23.514Z,100396.53
2023-03-06T13:15:39.567Z,100391.94
2023-03-06T13:18:41.994Z,100395.06
2023-03-06T13:21:55.940Z,100388.81
2023-03-06T13:25:19.635Z,100377.97
2023-03-06T13:28:46.583Z,100380.28
2023-03-06T13:31:58.200Z,100385.06
2023-03-06T13:35:01.680Z,100381.94
2023-03-06T13:38:06.174Z,100382.97
2023-03-06T13:41:23.594Z,100386.94
2023-03-06T13:44:25.638Z,100386.97
2023-03-06T13:47:39.175Z,100376.94
2023-03-06T13:50:51.727Z,100374.44
2023-03-06T13:54:11.304Z,100372.75
2023-03-06T13:57:23.815Z,100381.97
2023-03-06T14:00:50.967Z,100376.97
2023-03-06T14:04:14.736Z,100377.06
2023-03-06T14:07:40.218Z,100358.03
2023-03-06T14:10:44.059Z,100334.91
2023-03-06T14:13:51.810Z,100324.13
2023-03-06T14:16:54.355Z,100355.78
2023-03-06T14:20:00.939Z,100354.88
2023-03-06T14:23:21.424Z,100349.00
2023-03-06T14:26:26.061Z,100369.94
2023-03-06T14:29:30.693Z,100380.25
2023-03-06T14:32:33.041Z,100379.22
2023-03-06T14:35:35.213Z,100387.16
2023-03-06T14:38:44.314Z,100390.41
2023-03-06T14:41:46.460Z,100394.59
2023-03-06T14:45:01.834Z,100389.66
2023-03-06T14:48:07.374Z,100388.44
2023-03-06T14:51:22.107Z,100389.28
2023-03-06T14:54:39.573Z,100384.69
2023-03-06T14:57:41.816Z,100385.31
2023-03-06T15:00:46.558Z,100380.69
2023-03-06T15:03:51.452Z,100381.94
2023-03-06T15:06:55.408Z,100381.31
2023-03-06T15:09:58.426Z,100367.75
2023-03-06T15:13:09.219Z,100381.09
2023-03-06T15:16:13.973Z,100383.59
2023-03-06T15:19:21.920Z,100374.00
2023-03-06T15:22:29.771Z,100382.78
2023-03-06T15:25:32.464Z,100389.84
2023-03-06T15:28:39.663Z,100376.09
2023-03-06T15:31:44.202Z,100382.97
2023-03-06T15:34:47.157Z,100377.31
2023-03-06T15:37:49.173Z,100391.28
2023-03-06T15:40:56.573Z,100377.06
2023-03-06T15:44:00.363Z,100379.31
2023-03-06T15:47:08.767Z,100375.56
2023-03-06T15:50:19.148Z,100392.03
2023-03-06T15:53:21.325Z,100393.28
2023-03-06T15:56:29.822Z,100396.19
2023-03-06T15:59:36.626Z,100395.16
2023-03-06T16:02:41.177Z,100397.19
2023-03-06T16:05:43.302Z,100405.69
2023-03-06T16:08:45.532Z,100397.00
2023-03-06T16:11:47.572Z,100406.53
2023-03-06T16:14:49.896Z,100399.44
2023-03-06T16:17:51.856Z,100396.44
2023-03-06T16:20:54.044Z,100395.59
2023-03-06T16:23:56.185Z,100409.31
2023-03-06T16:27:00.642Z,100410.94
2023-03-06T16:30:03.830Z,100417.53
2023-03-06T16:33:05.983Z,100411.19
2023-03-06T16:36:17.554Z,100437.53
2023-03-06T16:39:22.852Z,100436.91
2023-03-06T16:42:25.159Z,100436.19
2023-03-06T16:45:27.414Z,100436.06
2023-03-06T16:48:29.583Z,100425.53
2023-03-06T16:51:32.041Z,100451.84
2023-03-06T16:54:34.284Z,100448.81
2023-03-06T16:57:36.259Z,100426.41
2023-03-06T17:00:38.365Z,100446.06
2023-03-06T17:03:40.558Z,100449.59
2023-03-06T17:06:43.289Z,100448.13
2023-03-06T17:09:45.459Z,100433.88
2023-03-06T17:12:47.455Z,100426.03
2023-03-06T17:15:56.570Z,100427.13
2023-03-06T17:19:00.098Z,100423.22
2023-03-06T17:22:02.148Z,100426.81
2023-03-06T17:25:06.996Z,100426.22
2023-03-06T17:28:09.131Z,100430.66
2023-03-06T17:31:23.019Z,100417.13
2023-03-06T17:34:25.022Z,100440.31
2023-03-06T17:37:27.310Z,100442.19
2023-03-06T17:40:29.450Z,100431.31
2023-03-06T17:43:34.279Z,100435.91
2023-03-06T17:46:36.515Z,100440.03
2023-03-06T17:49:38.667Z,100449.03
2023-03-06T17:52:40.704Z,100445.09
2023-03-06T17:55:42.765Z,100433.59
2023-03-06T17:58:45.184Z,100443.97
2023-03-06T18:01:47.376Z,100448.28
2023-03-06T18:04:49.421Z,100452.69
2023-03-06T18:07:51.425Z,100434.59
2023-03-06T18:10:59.705Z,100450.66
2023-03-06T18:14:03.215Z,100443.34
2023-03-06T18:17:06.341Z,100448.78
2023-03-06T18:20:09.410Z,100441.88
2023-03-06T18:23:11.499Z,100435.00
2023-03-06T18:26:25.325Z,100446.69
2023-03-06T18:29:27.574Z,100435.22
2023-03-06T18:32:29.821Z,100444.81
2023-03-06T18:35:33.795Z,100456.44
2023-03-06T18:38:37.050Z,100449.34
2023-03-06T18:41:39.299Z,100445.78
2023-03-06T18:44:41.631Z,100452.84
2023-03-06T18:47:43.661Z,100453.88
2023-03-06T18:50:45.742Z,100453.63
2023-03-06T18:53:47.998Z,100442.34
2023-03-06T18:56:49.953Z,100447.75
2023-03-06T18:59:52.102Z,100455.91
2023-03-06T19:02:54.093Z,100462.31
2023-03-06T19:05:56.247Z,100459.44
2023-03-06T19:09:02.417Z,100447.03
2023-03-06T19:12:04.904Z,100422.75
2023-03-06T19:15:07.429Z,100441.38
2023-03-06T19:18:09.362Z,100426.00
2023-03-06T19:21:20.142Z,100435.88
2023-03-06T19:24:22.205Z,100436.97
2023-03-06T19:27:24.290Z,100432.75
2023-03-06T19:30:26.747Z,100438.34
2023-03-06T19:33:28.715Z,100445.34
2023-03-06T19:36:33.921Z,100435.16
2023-03-06T19:39:36.052Z,100428.78
2023-03-06T19:42:38.139Z,100425.00
2023-03-06T19:45:44.271Z,100426.28
2023-03-06T19:48:46.441Z,100414.59
2023-03-06T19:51:48.490Z,100426.72
2023-03-06T19:54:51.342Z,100425.16
2023-03-06T19:57:54.025Z,100427.84
2023-03-06T20:00:58.611Z,100407.63
2023-03-06T20:04:00.737Z,100435.09
2023-03-06T20:07:04.927Z,100398.09
2023-03-06T20:10:08.204Z,100430.09
2023-03-06T20:13:12.576Z,100425.91
2023-03-06T20:16:17.076Z,100431.81
2023-03-06T20:19:21.934Z,100429.19
2023-03-06T20:22:24.016Z,100425.16
2023-03-06T20:29:44.875Z,100428.22
2023-03-06T20:32:46.899Z,100416.06
2023-03-06T20:35:49.152Z,100411.78
2023-03-06T20:38:51.461Z,100397.22
2023-03-06T20:41:54.087Z,100420.25
2023-03-06T20:44:56.194Z,100416.66
2023-03-06T20:47:58.251Z,100414.06
2023-03-06T20:51:26.149Z,100411.69
2023-03-06T20:54:29.094Z,100398.78
2023-03-06T20:57:34.587Z,100397.97
2023-03-06T21:00:36.575Z,100384.47
2023-03-06T21:03:39.799Z,100376.44
2023-03-06T21:06:47.257Z,100376.25
2023-03-06T21:09:49.916Z,100369.53
2023-03-06T21:12:52.041Z,100359.72
2023-03-06T21:15:54.480Z,100363.03
2023-03-06T21:18:58.636Z,100358.00
2023-03-06T21:22:00.637Z,100333.44
2023-03-06T21:25:02.765Z,100345.31
2023-03-06T21:28:05.358Z,100340.13
2023-03-06T21:31:09.006Z,100324.59
2023-03-06T21:34:11.798Z,100340.06
2023-03-06T21:37:13.959Z,100315.81
2023-03-06T21:40:16.236Z,100313.47
2023-03-06T21:43:20.297Z,100332.75
2023-03-06T21:46:27.693Z,100336.69
2023-03-06T21:49:29.954Z,100319.88
2023-03-06T21:52:32.078Z,100332.34
2023-03-06T21:55:34.359Z,100316.28
2023-03-06T21:58:38.071Z,100327.25
2023-03-06T22:01:42.675Z,100324.38
2023-03-06T22:04:44.963Z,100314.69
2023-03-06T22:07:47.031Z,100329.47
2023-03-06T22:10:49.291Z,100333.03
2023-03-06T22:13:53.301Z,100331.38
2023-03-06T22:16:56.851Z,100325.84
2023-03-06T22:19:59.158Z,100343.34
2023-03-06T22:23:01.249Z,100338.16
2023-03-06T22:26:12.532Z,100338.97
2023-03-06T22:29:14.647Z,100338.63
2023-03-06T22:32:16.764Z,100348.09
2023-03-06T22:35:18.864Z,100339.81
2023-03-06T22:38:20.889Z,100337.47
2023-03-06T22:41:26.376Z,100341.09
2023-03-06T22:44:28.403Z,100337.03
2023-03-06T22:47:30.391Z,100333.19
2023-03-06T22:50:33.653Z,100334.75
2023-03-06T22:53:36.372Z,100321.25
2023-03-06T22:56:38.518Z,100337.72
2023-03-06T22:59:40.696Z,100331.28
2023-03-06T23:02:44.034Z,100328.22
2023-03-06T23:05:46.007Z,100324.16
2023-03-06T23:08:59.664Z,100317.44
2023-03-06T23:12:01.954Z,100326.00
2023-03-06T23:15:23.051Z,100312.84
2023-03-06T23:18:43.835Z,100292.34
2023-03-06T23:22:04.096Z,100285.56
2023-03-06T23:25:24.655Z,100283.22
2023-03-06T23:28:27.686Z,100277.66
2023-03-06T23:31:31.082Z,100271.34
2023-03-06T23:34:33.043Z,100271.16
2023-03-06T23:37:35.242Z,100280.94
2023-03-06T23:40:38.458Z,100276.38
2023-03-06T23:43:40.529Z,100277.66
2023-03-06T23:46:42.855Z,100274.50
2023-03-06T23:49:44.971Z,100284.00
2023-03-06T23:52:47.276Z,100292.16
2023-03-06T23:55:50.483Z,100270.22
2023-03-06T23:58:52.607Z,100259.78
